sensor_id;sensor_type;location;lat;lon;timestamp;temperature;humidity
3778;DHT22;1904;50.076;8.660;2022-07-09T00:00:54;16.20;1.00
3778;DHT22;1904;50.076;8.660;2022-07-09T00:06:42;16.20;1.00
3778;DHT22;1904;50.076;8.660;2022-07-09T00:12:29;16.10;1.00
3778;DHT22;1904;50.076;8.660;2022-07-09T00:15:00;16.00;1.00
3778;DHT22;1904;50.076;8.660;2022-07-09T00:17:36;16.00;1.00
3778;DHT22;1904;50.076;8.660;2022-07-09T00:26:35;15.90;1.00
3778;DHT22;1904;50.076;8.660;2022-07-09T00:29:01;15.90;1.00
3778;DHT22;1904;50.076;8.660;2022-07-09T00:31:30;15.90;1.00
3778;DHT22;1904;50.076;8.660;2022-07-09T00:34:24;15.80;1.00
3778;DHT22;1904;50.076;8.660;2022-07-09T00:37:00;15.80;1.00
3778;DHT22;1904;50.076;8.660;2022-07-09T00:39:36;15.80;1.00
3778;DHT22;1904;50.076;8.660;2022-07-09T00:42:30;15.80;1.00
3778;DHT22;1904;50.076;8.660;2022-07-09T00:45:12;15.70;1.00
3778;DHT22;1904;50.076;8.660;2022-07-09T00:48:12;15.70;1.00
3778;DHT22;1904;50.076;8.660;2022-07-09T00:54:01;15.60;1.00
3778;DHT22;1904;50.076;8.660;2022-07-09T00:56:36;15.50;1.00
3778;DHT22;1904;50.076;8.660;2022-07-09T01:02:23;15.50;1.00
3778;DHT22;1904;50.076;8.660;2022-07-09T01:04:50;15.50;1.00
3778;DHT22;1904;50.076;8.660;2022-07-09T01:07:42;15.40;1.00
3778;DHT22;1904;50.076;8.660;2022-07-09T01:13:30;15.40;1.00
3778;DHT22;1904;50.076;8.660;2022-07-09T01:16:00;15.40;1.00
3778;DHT22;1904;50.076;8.660;2022-07-09T01:18:36;15.40;1.00
3778;DHT22;1904;50.076;8.660;2022-07-09T01:24:25;15.40;1.00
3778;DHT22;1904;50.076;8.660;2022-07-09T01:27:24;15.40;1.00
3778;DHT22;1904;50.076;8.660;2022-07-09T01:30:06;15.40;1.00
3778;DHT22;1904;50.076;8.660;2022-07-09T01:32:37;15.30;1.00
3778;DHT22;1904;50.076;8.660;2022-07-09T01:35:07;15.30;1.00
3778;DHT22;1904;50.076;8.660;2022-07-09T01:37:32;15.30;1.00
3778;DHT22;1904;50.076;8.660;2022-07-09T01:40:00;15.20;1.00
3778;DHT22;1904;50.076;8.660;2022-07-09T01:42:36;15.20;1.00
3778;DHT22;1904;50.076;8.660;2022-07-09T01:55:28;14.80;1.00
3778;DHT22;1904;50.076;8.660;2022-07-09T01:57:53;14.80;1.00
3778;DHT22;1904;50.076;8.660;2022-07-09T02:00:48;14.90;1.00
3778;DHT22;1904;50.076;8.660;2022-07-09T02:03:30;14.90;1.00
3778;DHT22;1904;50.076;8.660;2022-07-09T02:16:12;14.70;1.00
3778;DHT22;1904;50.076;8.660;2022-07-09T02:18:38;14.70;1.00
3778;DHT22;1904;50.076;8.660;2022-07-09T02:21:04;14.70;1.00
3778;DHT22;1904;50.076;8.660;2022-07-09T02:23:30;14.60;1.00
3778;DHT22;1904;50.076;8.660;2022-07-09T02:35:58;14.40;1.00
3778;DHT22;1904;50.076;8.660;2022-07-09T02:45:08;14.40;1.00
3778;DHT22;1904;50.076;8.660;2022-07-09T02:50:56;14.30;1.00
3778;DHT22;1904;50.076;8.660;2022-07-09T03:00:06;14.20;1.00
3778;DHT22;1904;50.076;8.660;2022-07-09T03:09:15;14.10;1.00
3778;DHT22;1904;50.076;8.660;2022-07-09T03:12:00;14.10;1.00
3778;DHT22;1904;50.076;8.660;2022-07-09T03:14:42;14.00;1.00
3778;DHT22;1904;50.076;8.660;2022-07-09T03:17:18;14.00;1.00
3778;DHT22;1904;50.076;8.660;2022-07-09T03:19:54;14.00;1.00
3778;DHT22;1904;50.076;8.660;2022-07-09T03:22:30;14.00;1.00
3778;DHT22;1904;50.076;8.660;2022-07-09T03:24:56;14.00;1.00
3778;DHT22;1904;50.076;8.660;2022-07-09T03:27:24;14.00;1.00
3778;DHT22;1904;50.076;8.660;2022-07-09T03:30:01;14.00;1.00
3778;DHT22;1904;50.076;8.660;2022-07-09T03:32:54;14.10;1.00
3778;DHT22;1904;50.076;8.660;2022-07-09T03:35:30;14.00;1.00
3778;DHT22;1904;50.076;8.660;2022-07-09T03:37:56;14.10;1.00
3778;DHT22;1904;50.076;8.660;2022-07-09T03:43:38;14.00;1.00
3778;DHT22;1904;50.076;8.660;2022-07-09T03:49:30;14.00;1.00
3778;DHT22;1904;50.076;8.660;2022-07-09T03:55:28;14.00;1.00
3778;DHT22;1904;50.076;8.660;2022-07-09T03:58:06;14.10;1.00
3778;DHT22;1904;50.076;8.660;2022-07-09T04:00:42;14.10;1.00
3778;DHT22;1904;50.076;8.660;2022-07-09T04:03:12;14.10;1.00
3778;DHT22;1904;50.076;8.660;2022-07-09T04:06:00;14.20;1.00
3778;DHT22;1904;50.076;8.660;2022-07-09T04:08:36;14.20;1.00
3778;DHT22;1904;50.076;8.660;2022-07-09T04:11:06;14.30;1.00
3778;DHT22;1904;50.076;8.660;2022-07-09T04:13:32;14.30;1.00
3778;DHT22;1904;50.076;8.660;2022-07-09T04:19:20;14.50;1.00
3778;DHT22;1904;50.076;8.660;2022-07-09T04:25:07;14.50;1.00
3778;DHT22;1904;50.076;8.660;2022-07-09T04:30:56;14.60;1.00
3778;DHT22;1904;50.076;8.660;2022-07-09T04:33:36;14.80;1.00
3778;DHT22;1904;50.076;8.660;2022-07-09T04:36:12;14.80;1.00
3778;DHT22;1904;50.076;8.660;2022-07-09T04:39:12;14.80;1.00
3778;DHT22;1904;50.076;8.660;2022-07-09T04:45:01;15.00;1.00
3778;DHT22;1904;50.076;8.660;2022-07-09T04:47:30;15.20;1.00
3778;DHT22;1904;50.076;8.660;2022-07-09T04:53:18;15.50;1.00
3778;DHT22;1904;50.076;8.660;2022-07-09T04:59:06;15.90;1.00
3778;DHT22;1904;50.076;8.660;2022-07-09T05:01:48;16.10;1.00
3778;DHT22;1904;50.076;8.660;2022-07-09T05:10:59;16.90;1.00
3778;DHT22;1904;50.076;8.660;2022-07-09T05:13:37;17.10;1.00
3778;DHT22;1904;50.076;8.660;2022-07-09T05:22:48;17.50;1.00
3778;DHT22;1904;50.076;8.660;2022-07-09T05:25:48;17.60;1.00
3778;DHT22;1904;50.076;8.660;2022-07-09T05:31:49;17.70;1.00
3778;DHT22;1904;50.076;8.660;2022-07-09T05:34:18;17.80;1.00
3778;DHT22;1904;50.076;8.660;2022-07-09T05:36:44;17.90;1.00
3778;DHT22;1904;50.076;8.660;2022-07-09T05:39:11;18.00;1.00
3778;DHT22;1904;50.076;8.660;2022-07-09T05:41:54;18.00;1.00
3778;DHT22;1904;50.076;8.660;2022-07-09T05:51:12;18.30;1.00
3778;DHT22;1904;50.076;8.660;2022-07-09T05:57:15;18.50;1.00
3778;DHT22;1904;50.076;8.660;2022-07-09T06:06:18;19.00;1.00
3778;DHT22;1904;50.076;8.660;2022-07-09T06:12:36;19.20;1.00
3778;DHT22;1904;50.076;8.660;2022-07-09T06:18:24;19.40;1.00
3778;DHT22;1904;50.076;8.660;2022-07-09T06:27:30;19.60;1.00
3778;DHT22;1904;50.076;8.660;2022-07-09T06:33:18;20.00;1.00
3778;DHT22;1904;50.076;8.660;2022-07-09T06:36:18;20.20;1.00
3778;DHT22;1904;50.076;8.660;2022-07-09T06:52:06;21.10;1.00
3778;DHT22;1904;50.076;8.660;2022-07-09T06:54:33;21.20;1.00
3778;DHT22;1904;50.076;8.660;2022-07-09T07:00:21;21.70;1.00
3778;DHT22;1904;50.076;8.660;2022-07-09T07:09:18;22.70;1.00
3778;DHT22;1904;50.076;8.660;2022-07-09T07:15:06;23.30;1.00
3778;DHT22;1904;50.076;8.660;2022-07-09T07:24:18;23.40;1.00
3778;DHT22;1904;50.076;8.660;2022-07-09T07:26:55;23.50;1.00
3778;DHT22;1904;50.076;8.660;2022-07-09T07:32:43;23.60;1.00
3778;DHT22;1904;50.076;8.660;2022-07-09T07:35:09;23.70;1.00
3778;DHT22;1904;50.076;8.660;2022-07-09T07:37:54;23.70;1.00
3778;DHT22;1904;50.076;8.660;2022-07-09T07:43:43;24.30;1.00
3778;DHT22;1904;50.076;8.660;2022-07-09T08:03:00;24.60;1.00
3778;DHT22;1904;50.076;8.660;2022-07-09T08:05:43;24.90;1.00
3778;DHT22;1904;50.076;8.660;2022-07-09T08:08:13;25.20;1.00
3778;DHT22;1904;50.076;8.660;2022-07-09T08:10:39;25.20;1.00
3778;DHT22;1904;50.076;8.660;2022-07-09T08:16:26;25.30;1.00
3778;DHT22;1904;50.076;8.660;2022-07-09T08:22:31;26.00;1.00
3778;DHT22;1904;50.076;8.660;2022-07-09T08:25:13;26.10;1.00
3778;DHT22;1904;50.076;8.660;2022-07-09T08:31:07;26.20;1.00
3778;DHT22;1904;50.076;8.660;2022-07-09T08:36:55;25.70;1.00
3778;DHT22;1904;50.076;8.660;2022-07-09T08:39:31;25.40;1.00
3778;DHT22;1904;50.076;8.660;2022-07-09T08:42:10;25.10;1.00
3778;DHT22;1904;50.076;8.660;2022-07-09T08:44:49;25.00;1.00
3778;DHT22;1904;50.076;8.660;2022-07-09T08:47:31;25.20;1.00
3778;DHT22;1904;50.076;8.660;2022-07-09T08:50:09;25.50;1.00
3778;DHT22;1904;50.076;8.660;2022-07-09T08:59:07;25.70;1.00
3778;DHT22;1904;50.076;8.660;2022-07-09T09:01:37;25.70;1.00
3778;DHT22;1904;50.076;8.660;2022-07-09T09:04:19;26.00;1.00
3778;DHT22;1904;50.076;8.660;2022-07-09T09:06:49;26.50;1.00
3778;DHT22;1904;50.076;8.660;2022-07-09T09:09:19;26.60;1.00
3778;DHT22;1904;50.076;8.660;2022-07-09T09:18:40;26.50;1.00
3778;DHT22;1904;50.076;8.660;2022-07-09T09:28:01;26.90;1.00
3778;DHT22;1904;50.076;8.660;2022-07-09T09:30:43;27.00;1.00
3778;DHT22;1904;50.076;8.660;2022-07-09T09:36:45;26.90;1.00
3778;DHT22;1904;50.076;8.660;2022-07-09T09:45:55;26.90;1.00
3778;DHT22;1904;50.076;8.660;2022-07-09T09:48:25;26.70;1.00
3778;DHT22;1904;50.076;8.660;2022-07-09T09:54:13;26.80;1.00
3778;DHT22;1904;50.076;8.660;2022-07-09T10:00:24;26.90;1.00
3778;DHT22;1904;50.076;8.660;2022-07-09T10:02:50;27.00;1.00
3778;DHT22;1904;50.076;8.660;2022-07-09T10:05:25;27.10;1.00
3778;DHT22;1904;50.076;8.660;2022-07-09T10:08:01;27.20;1.00
3778;DHT22;1904;50.076;8.660;2022-07-09T10:10:26;27.60;1.00
3778;DHT22;1904;50.076;8.660;2022-07-09T10:12:55;27.90;1.00
3778;DHT22;1904;50.076;8.660;2022-07-09T10:15:37;28.10;1.00
3778;DHT22;1904;50.076;8.660;2022-07-09T10:18:19;27.80;1.00
3778;DHT22;1904;50.076;8.660;2022-07-09T10:21:01;28.10;1.00
3778;DHT22;1904;50.076;8.660;2022-07-09T10:23:31;28.20;1.00
3778;DHT22;1904;50.076;8.660;2022-07-09T10:25:57;28.00;1.00
3778;DHT22;1904;50.076;8.660;2022-07-09T10:28:23;27.90;1.00
3778;DHT22;1904;50.076;8.660;2022-07-09T10:30:51;27.90;1.00
3778;DHT22;1904;50.076;8.660;2022-07-09T10:33:23;28.00;1.00
3778;DHT22;1904;50.076;8.660;2022-07-09T10:36:12;28.10;1.00
3778;DHT22;1904;50.076;8.660;2022-07-09T10:38:39;27.80;1.00
3778;DHT22;1904;50.076;8.660;2022-07-09T10:41:07;27.70;1.00
3778;DHT22;1904;50.076;8.660;2022-07-09T10:43:54;27.30;1.00
3778;DHT22;1904;50.076;8.660;2022-07-09T10:46:25;27.50;1.00
3778;DHT22;1904;50.076;8.660;2022-07-09T10:55:43;28.40;1.00
3778;DHT22;1904;50.076;8.660;2022-07-09T11:01:32;29.10;1.00
3778;DHT22;1904;50.076;8.660;2022-07-09T11:04:30;29.30;1.00
3778;DHT22;1904;50.076;8.660;2022-07-09T11:10:02;29.40;1.00
3778;DHT22;1904;50.076;8.660;2022-07-09T11:12:48;29.30;1.00
3778;DHT22;1904;50.076;8.660;2022-07-09T11:18:37;28.80;1.00
3778;DHT22;1904;50.076;8.660;2022-07-09T11:21:02;28.80;1.00
3778;DHT22;1904;50.076;8.660;2022-07-09T11:23:28;28.60;1.00
3778;DHT22;1904;50.076;8.660;2022-07-09T11:26:08;28.40;1.00
3778;DHT22;1904;50.076;8.660;2022-07-09T11:28:34;28.40;1.00
3778;DHT22;1904;50.076;8.660;2022-07-09T11:31:02;28.90;1.00
3778;DHT22;1904;50.076;8.660;2022-07-09T11:33:31;29.10;1.00
3778;DHT22;1904;50.076;8.660;2022-07-09T11:36:51;29.20;1.00
3778;DHT22;1904;50.076;8.660;2022-07-09T11:39:36;29.10;1.00
3778;DHT22;1904;50.076;8.660;2022-07-09T11:45:28;28.80;1.00
3778;DHT22;1904;50.076;8.660;2022-07-09T11:48:12;29.10;1.00
3778;DHT22;1904;50.076;8.660;2022-07-09T11:54:00;30.40;1.00
3778;DHT22;1904;50.076;8.660;2022-07-09T11:56:43;30.60;1.00
3778;DHT22;1904;50.076;8.660;2022-07-09T12:05:53;30.90;1.00
3778;DHT22;1904;50.076;8.660;2022-07-09T12:08:27;30.90;1.00
3778;DHT22;1904;50.076;8.660;2022-07-09T12:11:12;30.90;1.00
3778;DHT22;1904;50.076;8.660;2022-07-09T12:23:44;30.40;1.00
3778;DHT22;1904;50.076;8.660;2022-07-09T12:26:25;30.40;1.00
3778;DHT22;1904;50.076;8.660;2022-07-09T12:29:24;30.10;1.00
3778;DHT22;1904;50.076;8.660;2022-07-09T12:35:12;30.60;1.00
3778;DHT22;1904;50.076;8.660;2022-07-09T12:38:12;30.60;1.00
3778;DHT22;1904;50.076;8.660;2022-07-09T12:41:06;30.50;1.00
3778;DHT22;1904;50.076;8.660;2022-07-09T12:53:21;30.60;1.00
3778;DHT22;1904;50.076;8.660;2022-07-09T12:59:09;30.30;1.00
3778;DHT22;1904;50.076;8.660;2022-07-09T13:01:49;30.70;1.00
3778;DHT22;1904;50.076;8.660;2022-07-09T13:04:31;31.10;1.00
3778;DHT22;1904;50.076;8.660;2022-07-09T13:06:57;31.10;1.00
3778;DHT22;1904;50.076;8.660;2022-07-09T13:09:54;31.00;1.00
3778;DHT22;1904;50.076;8.660;2022-07-09T13:15:41;30.50;1.00
3778;DHT22;1904;50.076;8.660;2022-07-09T13:18:08;30.70;1.00
3778;DHT22;1904;50.076;8.660;2022-07-09T13:21:06;30.70;1.00
3778;DHT22;1904;50.076;8.660;2022-07-09T13:26:54;30.70;1.00
3778;DHT22;1904;50.076;8.660;2022-07-09T13:36:36;30.00;1.00
3778;DHT22;1904;50.076;8.660;2022-07-09T13:39:30;29.70;1.00
3778;DHT22;1904;50.076;8.660;2022-07-09T13:42:01;29.60;1.00
3778;DHT22;1904;50.076;8.660;2022-07-09T13:44:31;29.80;1.00
3778;DHT22;1904;50.076;8.660;2022-07-09T13:47:01;30.10;1.00
3778;DHT22;1904;50.076;8.660;2022-07-09T13:49:48;30.50;1.00
3778;DHT22;1904;50.076;8.660;2022-07-09T13:52:25;30.40;1.00
3778;DHT22;1904;50.076;8.660;2022-07-09T13:55:24;30.30;1.00
3778;DHT22;1904;50.076;8.660;2022-07-09T13:57:50;30.60;1.00
3778;DHT22;1904;50.076;8.660;2022-07-09T14:00:31;30.80;1.00
3778;DHT22;1904;50.076;8.660;2022-07-09T14:02:56;30.80;1.00
3778;DHT22;1904;50.076;8.660;2022-07-09T14:05:25;30.70;1.00
3778;DHT22;1904;50.076;8.660;2022-07-09T14:07:55;30.70;1.00
3778;DHT22;1904;50.076;8.660;2022-07-09T14:10:32;30.50;1.00
3778;DHT22;1904;50.076;8.660;2022-07-09T14:13:30;30.30;1.00
3778;DHT22;1904;50.076;8.660;2022-07-09T14:23:12;30.00;1.00
3778;DHT22;1904;50.076;8.660;2022-07-09T14:32:13;30.10;1.00
3778;DHT22;1904;50.076;8.660;2022-07-09T14:34:49;30.30;1.00
3778;DHT22;1904;50.076;8.660;2022-07-09T14:40:37;30.90;1.00
3778;DHT22;1904;50.076;8.660;2022-07-09T14:43:03;30.70;1.00
3778;DHT22;1904;50.076;8.660;2022-07-09T14:46:00;30.50;1.00
3778;DHT22;1904;50.076;8.660;2022-07-09T14:51:48;31.10;1.00
3778;DHT22;1904;50.076;8.660;2022-07-09T14:57:35;31.10;1.00
3778;DHT22;1904;50.076;8.660;2022-07-09T15:00:07;31.30;1.00
3778;DHT22;1904;50.076;8.660;2022-07-09T15:06:00;31.50;1.00
3778;DHT22;1904;50.076;8.660;2022-07-09T15:12:01;31.20;1.00
3778;DHT22;1904;50.076;8.660;2022-07-09T15:14:43;30.80;1.00
3778;DHT22;1904;50.076;8.660;2022-07-09T15:21:00;30.20;1.00
3778;DHT22;1904;50.076;8.660;2022-07-09T15:26:48;30.00;1.00
3778;DHT22;1904;50.076;8.660;2022-07-09T15:29:36;29.50;1.00
3778;DHT22;1904;50.076;8.660;2022-07-09T15:32:19;29.20;1.00
3778;DHT22;1904;50.076;8.660;2022-07-09T15:35:07;29.00;1.00
3778;DHT22;1904;50.076;8.660;2022-07-09T15:40:55;28.20;1.00
3778;DHT22;1904;50.076;8.660;2022-07-09T15:43:48;27.70;1.00
3778;DHT22;1904;50.076;8.660;2022-07-09T15:46:32;27.50;1.00
3778;DHT22;1904;50.076;8.660;2022-07-09T15:52:19;27.20;1.00
3778;DHT22;1904;50.076;8.660;2022-07-09T15:57:53;26.90;1.00
3778;DHT22;1904;50.076;8.660;2022-07-09T16:00:37;26.70;1.00
3778;DHT22;1904;50.076;8.660;2022-07-09T16:03:36;26.70;1.00
3778;DHT22;1904;50.076;8.660;2022-07-09T16:09:24;26.50;1.00
3778;DHT22;1904;50.076;8.660;2022-07-09T16:15:11;26.30;1.00
3778;DHT22;1904;50.076;8.660;2022-07-09T16:24:21;26.20;1.00
3778;DHT22;1904;50.076;8.660;2022-07-09T16:26:47;26.00;1.00
3778;DHT22;1904;50.076;8.660;2022-07-09T16:32:37;25.60;1.00
3778;DHT22;1904;50.076;8.660;2022-07-09T16:35:19;25.60;1.00
3778;DHT22;1904;50.076;8.660;2022-07-09T16:38:01;25.50;1.00
3778;DHT22;1904;50.076;8.660;2022-07-09T16:40:54;25.40;1.00
3778;DHT22;1904;50.076;8.660;2022-07-09T16:46:38;25.10;1.00
3778;DHT22;1904;50.076;8.660;2022-07-09T16:49:04;24.90;1.00
3778;DHT22;1904;50.076;8.660;2022-07-09T16:51:30;24.70;1.00
3778;DHT22;1904;50.076;8.660;2022-07-09T16:57:17;24.20;1.00
3778;DHT22;1904;50.076;8.660;2022-07-09T17:00:06;23.90;1.00
3778;DHT22;1904;50.076;8.660;2022-07-09T17:03:06;23.60;1.00
3778;DHT22;1904;50.076;8.660;2022-07-09T17:06:06;23.40;1.00
3778;DHT22;1904;50.076;8.660;2022-07-09T17:11:54;22.80;1.00
3778;DHT22;1904;50.076;8.660;2022-07-09T17:14:19;22.70;1.00
3778;DHT22;1904;50.076;8.660;2022-07-09T17:16:47;22.50;1.00
3778;DHT22;1904;50.076;8.660;2022-07-09T17:19:12;22.30;1.00
3778;DHT22;1904;50.076;8.660;2022-07-09T17:21:38;22.20;1.00
3778;DHT22;1904;50.076;8.660;2022-07-09T17:24:04;21.90;1.00
3778;DHT22;1904;50.076;8.660;2022-07-09T17:26:43;21.80;1.00
3778;DHT22;1904;50.076;8.660;2022-07-09T17:32:36;21.50;1.00
3778;DHT22;1904;50.076;8.660;2022-07-09T17:35:36;21.50;1.00
3778;DHT22;1904;50.076;8.660;2022-07-09T17:38:36;21.40;1.00
3778;DHT22;1904;50.076;8.660;2022-07-09T17:41:24;21.30;1.00
3778;DHT22;1904;50.076;8.660;2022-07-09T17:44:07;21.20;1.00
3778;DHT22;1904;50.076;8.660;2022-07-09T17:46:33;21.20;1.00
3778;DHT22;1904;50.076;8.660;2022-07-09T17:49:07;21.20;1.00
3778;DHT22;1904;50.076;8.660;2022-07-09T17:51:49;21.10;1.00
3778;DHT22;1904;50.076;8.660;2022-07-09T17:54:31;21.10;1.00
3778;DHT22;1904;50.076;8.660;2022-07-09T17:57:01;21.10;1.00
3778;DHT22;1904;50.076;8.660;2022-07-09T18:02:49;21.20;1.00
3778;DHT22;1904;50.076;8.660;2022-07-09T18:15:07;22.00;1.00
3778;DHT22;1904;50.076;8.660;2022-07-09T18:17:38;22.20;1.00
3778;DHT22;1904;50.076;8.660;2022-07-09T18:20:08;22.30;1.00
3778;DHT22;1904;50.076;8.660;2022-07-09T18:23:06;22.40;1.00
3778;DHT22;1904;50.076;8.660;2022-07-09T18:26:00;22.40;1.00
3778;DHT22;1904;50.076;8.660;2022-07-09T18:28:37;22.40;1.00
3778;DHT22;1904;50.076;8.660;2022-07-09T18:31:07;22.30;1.00
3778;DHT22;1904;50.076;8.660;2022-07-09T18:40:06;22.30;1.00
3778;DHT22;1904;50.076;8.660;2022-07-09T18:42:32;22.20;1.00
3778;DHT22;1904;50.076;8.660;2022-07-09T18:45:01;22.10;1.00
3778;DHT22;1904;50.076;8.660;2022-07-09T18:47:48;22.00;1.00
3778;DHT22;1904;50.076;8.660;2022-07-09T18:50:14;21.90;1.00
3778;DHT22;1904;50.076;8.660;2022-07-09T18:52:43;21.80;1.00
3778;DHT22;1904;50.076;8.660;2022-07-09T18:55:09;21.70;1.00
3778;DHT22;1904;50.076;8.660;2022-07-09T18:57:37;21.60;1.00
3778;DHT22;1904;50.076;8.660;2022-07-09T19:00:07;21.50;1.00
3778;DHT22;1904;50.076;8.660;2022-07-09T19:02:38;21.30;1.00
3778;DHT22;1904;50.076;8.660;2022-07-09T19:05:07;21.20;1.00
3778;DHT22;1904;50.076;8.660;2022-07-09T19:08:06;21.10;1.00
3778;DHT22;1904;50.076;8.660;2022-07-09T19:11:06;20.90;1.00
3778;DHT22;1904;50.076;8.660;2022-07-09T19:17:07;20.50;1.00
3778;DHT22;1904;50.076;8.660;2022-07-09T19:19:37;20.40;1.00
3778;DHT22;1904;50.076;8.660;2022-07-09T19:22:30;20.20;1.00
3778;DHT22;1904;50.076;8.660;2022-07-09T19:28:07;19.90;1.00
3778;DHT22;1904;50.076;8.660;2022-07-09T19:30:37;19.70;1.00
3778;DHT22;1904;50.076;8.660;2022-07-09T19:33:37;19.50;1.00
3778;DHT22;1904;50.076;8.660;2022-07-09T19:36:38;19.30;1.00
3778;DHT22;1904;50.076;8.660;2022-07-09T19:39:36;19.10;1.00
3778;DHT22;1904;50.076;8.660;2022-07-09T19:48:37;18.80;1.00
3778;DHT22;1904;50.076;8.660;2022-07-09T19:51:36;18.60;1.00
3778;DHT22;1904;50.076;8.660;2022-07-09T19:54:36;18.50;1.00
3778;DHT22;1904;50.076;8.660;2022-07-09T19:57:03;18.40;1.00
3778;DHT22;1904;50.076;8.660;2022-07-09T20:03:06;18.30;1.00
3778;DHT22;1904;50.076;8.660;2022-07-09T20:05:37;18.20;1.00
3778;DHT22;1904;50.076;8.660;2022-07-09T20:08:36;18.10;1.00
3778;DHT22;1904;50.076;8.660;2022-07-09T20:11:36;18.00;1.00
3778;DHT22;1904;50.076;8.660;2022-07-09T20:14:07;17.90;1.00
3778;DHT22;1904;50.076;8.660;2022-07-09T20:17:06;17.80;1.00
3778;DHT22;1904;50.076;8.660;2022-07-09T20:19:37;17.80;1.00
3778;DHT22;1904;50.076;8.660;2022-07-09T20:22:07;17.70;1.00
3778;DHT22;1904;50.076;8.660;2022-07-09T20:24:37;17.60;1.00
3778;DHT22;1904;50.076;8.660;2022-07-09T20:30:07;17.50;1.00
3778;DHT22;1904;50.076;8.660;2022-07-09T20:32:37;17.40;1.00
3778;DHT22;1904;50.076;8.660;2022-07-09T20:35:07;17.30;1.00
3778;DHT22;1904;50.076;8.660;2022-07-09T20:37:37;17.30;1.00
3778;DHT22;1904;50.076;8.660;2022-07-09T20:40:07;17.20;1.00
3778;DHT22;1904;50.076;8.660;2022-07-09T20:43:07;17.10;1.00
3778;DHT22;1904;50.076;8.660;2022-07-09T20:45:37;17.10;1.00
3778;DHT22;1904;50.076;8.660;2022-07-09T20:48:07;17.10;1.00
3778;DHT22;1904;50.076;8.660;2022-07-09T20:50:33;17.10;1.00
3778;DHT22;1904;50.076;8.660;2022-07-09T20:53:07;16.90;1.00
3778;DHT22;1904;50.076;8.660;2022-07-09T20:55:34;16.80;1.00
3778;DHT22;1904;50.076;8.660;2022-07-09T20:58:07;16.80;1.00
3778;DHT22;1904;50.076;8.660;2022-07-09T21:00:37;16.70;1.00
3778;DHT22;1904;50.076;8.660;2022-07-09T21:03:07;16.70;1.00
3778;DHT22;1904;50.076;8.660;2022-07-09T21:05:37;16.60;1.00
3778;DHT22;1904;50.076;8.660;2022-07-09T21:08:07;16.60;1.00
3778;DHT22;1904;50.076;8.660;2022-07-09T21:10:37;16.50;1.00
3778;DHT22;1904;50.076;8.660;2022-07-09T21:13:03;16.40;1.00
3778;DHT22;1904;50.076;8.660;2022-07-09T21:15:31;16.30;1.00
3778;DHT22;1904;50.076;8.660;2022-07-09T21:17:57;16.30;1.00
3778;DHT22;1904;50.076;8.660;2022-07-09T21:20:41;16.20;1.00
3778;DHT22;1904;50.076;8.660;2022-07-09T21:23:25;16.20;1.00
3778;DHT22;1904;50.076;8.660;2022-07-09T21:26:01;16.20;1.00
3778;DHT22;1904;50.076;8.660;2022-07-09T21:28:31;16.10;1.00
3778;DHT22;1904;50.076;8.660;2022-07-09T21:31:01;16.20;1.00
3778;DHT22;1904;50.076;8.660;2022-07-09T21:33:37;16.10;1.00
3778;DHT22;1904;50.076;8.660;2022-07-09T21:39:07;16.00;1.00
3778;DHT22;1904;50.076;8.660;2022-07-09T21:41:37;16.00;1.00
3778;DHT22;1904;50.076;8.660;2022-07-09T21:44:07;16.00;1.00
3778;DHT22;1904;50.076;8.660;2022-07-09T21:46:37;16.00;1.00
3778;DHT22;1904;50.076;8.660;2022-07-09T21:49:07;15.90;1.00
3778;DHT22;1904;50.076;8.660;2022-07-09T21:51:37;15.80;1.00
3778;DHT22;1904;50.076;8.660;2022-07-09T21:54:30;15.90;1.00
3778;DHT22;1904;50.076;8.660;2022-07-09T21:57:01;15.80;1.00
3778;DHT22;1904;50.076;8.660;2022-07-09T21:59:31;15.80;1.00
3778;DHT22;1904;50.076;8.660;2022-07-09T22:02:07;15.80;1.00
3778;DHT22;1904;50.076;8.660;2022-07-09T22:04:43;15.80;1.00
3778;DHT22;1904;50.076;8.660;2022-07-09T22:07:37;15.60;1.00
3778;DHT22;1904;50.076;8.660;2022-07-09T22:10:08;15.50;1.00
3778;DHT22;1904;50.076;8.660;2022-07-09T22:13:01;15.50;1.00
3778;DHT22;1904;50.076;8.660;2022-07-09T22:15:49;15.40;1.00
3778;DHT22;1904;50.076;8.660;2022-07-09T22:18:48;15.40;1.00
3778;DHT22;1904;50.076;8.660;2022-07-09T22:21:14;15.40;1.90
3778;DHT22;1904;50.076;8.660;2022-07-09T22:23:40;15.30;1.50
3778;DHT22;1904;50.076;8.660;2022-07-09T22:26:24;15.30;1.00
3778;DHT22;1904;50.076;8.660;2022-07-09T22:28:55;15.30;2.20
3778;DHT22;1904;50.076;8.660;2022-07-09T22:31:31;15.20;2.90
3778;DHT22;1904;50.076;8.660;2022-07-09T22:34:01;15.20;3.60
3778;DHT22;1904;50.076;8.660;2022-07-09T22:36:31;15.20;4.00
3778;DHT22;1904;50.076;8.660;2022-07-09T22:38:57;15.20;7.10
3778;DHT22;1904;50.076;8.660;2022-07-09T22:41:31;15.20;5.70
3778;DHT22;1904;50.076;8.660;2022-07-09T22:44:04;15.20;6.50
3778;DHT22;1904;50.076;8.660;2022-07-09T22:46:43;15.20;8.20
3778;DHT22;1904;50.076;8.660;2022-07-09T22:49:13;15.20;8.20
3778;DHT22;1904;50.076;8.660;2022-07-09T22:52:00;15.20;8.40
3778;DHT22;1904;50.076;8.660;2022-07-09T22:54:26;15.20;8.80
3778;DHT22;1904;50.076;8.660;2022-07-09T22:57:01;15.20;7.80
3778;DHT22;1904;50.076;8.660;2022-07-09T22:59:54;15.20;5.00
3778;DHT22;1904;50.076;8.660;2022-07-09T23:12:01;15.40;1.00
3778;DHT22;1904;50.076;8.660;2022-07-09T23:14:31;15.40;1.00
3778;DHT22;1904;50.076;8.660;2022-07-09T23:20:31;15.50;1.00
3778;DHT22;1904;50.076;8.660;2022-07-09T23:23:01;15.50;1.00
3778;DHT22;1904;50.076;8.660;2022-07-09T23:25:31;15.50;1.00
3778;DHT22;1904;50.076;8.660;2022-07-09T23:27:56;15.70;1.00
3778;DHT22;1904;50.076;8.660;2022-07-09T23:30:31;15.50;1.00
3778;DHT22;1904;50.076;8.660;2022-07-09T23:33:13;15.50;1.00
3778;DHT22;1904;50.076;8.660;2022-07-09T23:35:49;15.40;1.00
3778;DHT22;1904;50.076;8.660;2022-07-09T23:41:31;15.50;1.00
3778;DHT22;1904;50.076;8.660;2022-07-09T23:44:01;15.60;1.00
3778;DHT22;1904;50.076;8.660;2022-07-09T23:50:02;15.70;1.00
3778;DHT22;1904;50.076;8.660;2022-07-09T23:56:01;15.80;1.00
